Franktown, Colorado
Current Conditions -  °F | °C
As of 5:53 PM on Tuesday 27 Jan 2015 (Local Time) from KAPA Reporting Station
Scattered Clouds Scattered Clouds  
Wind Chill: 53°   Ceiling: Unl
Heat Index: 53°   Visibility: 10mi
Dew Point: 34°   Wind: 7mph
Humidity: 48%   Direction: 320°NW
Pressure: 30.03"   Gusts: NA
Location:  39.39°N, 104.75°W
Report Text: KAPA 280053Z 32006KT 10SM FEW150 SCT220 12/01 A3003 RMK AO2 SLP144 T01170011
Loading
Personal Weather Stations






























Interactive Weather Map New forecast layout! Learn more

10-Day Weather Forecast

Advertisements
Track Severe Weather on mobile